sensor_id;sensor_type;location;lat;lon;timestamp;P1;durP1;ratioP1;P2;durP2;ratioP2
35847;SDS011;22332;51.954;20.118;2022-09-17T00:00:53;3.10;;;2.50;;
35847;SDS011;22332;51.954;20.118;2022-09-17T00:04:05;3.50;;;2.10;;
35847;SDS011;22332;51.954;20.118;2022-09-17T00:07:12;3.60;;;2.40;;
35847;SDS011;22332;51.954;20.118;2022-09-17T00:10:18;5.10;;;2.70;;
35847;SDS011;22332;51.954;20.118;2022-09-17T00:13:24;4.40;;;2.40;;
35847;SDS011;22332;51.954;20.118;2022-09-17T00:16:31;3.20;;;2.40;;
35847;SDS011;22332;51.954;20.118;2022-09-17T00:19:37;3.70;;;2.60;;
35847;SDS011;22332;51.954;20.118;2022-09-17T00:22:43;3.70;;;2.60;;
35847;SDS011;22332;51.954;20.118;2022-09-17T00:25:48;3.60;;;2.60;;
35847;SDS011;22332;51.954;20.118;2022-09-17T00:28:54;3.50;;;2.10;;
35847;SDS011;22332;51.954;20.118;2022-09-17T00:32:01;3.90;;;2.10;;
35847;SDS011;22332;51.954;20.118;2022-09-17T00:35:07;3.50;;;2.50;;
35847;SDS011;22332;51.954;20.118;2022-09-17T00:38:12;3.00;;;2.30;;
35847;SDS011;22332;51.954;20.118;2022-09-17T00:41:18;4.10;;;2.60;;
35847;SDS011;22332;51.954;20.118;2022-09-17T00:44:40;4.00;;;2.90;;
35847;SDS011;22332;51.954;20.118;2022-09-17T00:47:51;3.30;;;2.60;;
35847;SDS011;22332;51.954;20.118;2022-09-17T00:51:00;3.80;;;2.10;;
35847;SDS011;22332;51.954;20.118;2022-09-17T00:54:08;5.30;;;2.60;;
35847;SDS011;22332;51.954;20.118;2022-09-17T00:57:15;3.00;;;1.80;;
35847;SDS011;22332;51.954;20.118;2022-09-17T01:00:21;3.90;;;2.40;;
35847;SDS011;22332;51.954;20.118;2022-09-17T01:03:28;3.70;;;2.20;;
35847;SDS011;22332;51.954;20.118;2022-09-17T01:06:36;3.70;;;2.40;;
35847;SDS011;22332;51.954;20.118;2022-09-17T01:09:49;3.70;;;2.30;;
35847;SDS011;22332;51.954;20.118;2022-09-17T01:13:04;5.10;;;2.40;;
35847;SDS011;22332;51.954;20.118;2022-09-17T01:16:24;5.10;;;2.80;;
35847;SDS011;22332;51.954;20.118;2022-09-17T01:19:55;4.10;;;2.70;;
35847;SDS011;22332;51.954;20.118;2022-09-17T01:23:25;4.40;;;2.40;;
35847;SDS011;22332;51.954;20.118;2022-09-17T01:27:01;3.20;;;2.20;;
35847;SDS011;22332;51.954;20.118;2022-09-17T01:34:01;5.10;;;2.50;;
35847;SDS011;22332;51.954;20.118;2022-09-17T01:37:15;3.70;;;2.70;;
35847;SDS011;22332;51.954;20.118;2022-09-17T01:40:28;3.80;;;2.90;;
35847;SDS011;22332;51.954;20.118;2022-09-17T01:43:44;5.10;;;3.10;;
35847;SDS011;22332;51.954;20.118;2022-09-17T01:46:55;5.50;;;3.20;;
35847;SDS011;22332;51.954;20.118;2022-09-17T01:50:08;4.30;;;2.80;;
35847;SDS011;22332;51.954;20.118;2022-09-17T01:53:16;2.80;;;2.10;;
35847;SDS011;22332;51.954;20.118;2022-09-17T01:56:25;3.50;;;2.60;;
35847;SDS011;22332;51.954;20.118;2022-09-17T01:59:36;3.10;;;2.40;;
35847;SDS011;22332;51.954;20.118;2022-09-17T02:02:47;3.90;;;3.00;;
35847;SDS011;22332;51.954;20.118;2022-09-17T02:05:57;3.90;;;2.70;;
35847;SDS011;22332;51.954;20.118;2022-09-17T02:09:10;3.50;;;2.80;;
35847;SDS011;22332;51.954;20.118;2022-09-17T02:12:19;3.10;;;2.60;;
35847;SDS011;22332;51.954;20.118;2022-09-17T02:15:32;4.70;;;2.40;;
35847;SDS011;22332;51.954;20.118;2022-09-17T02:18:41;3.20;;;2.30;;
35847;SDS011;22332;51.954;20.118;2022-09-17T02:21:53;2.90;;;2.40;;
35847;SDS011;22332;51.954;20.118;2022-09-17T02:25:07;3.80;;;2.50;;
35847;SDS011;22332;51.954;20.118;2022-09-17T02:28:19;4.00;;;2.80;;
35847;SDS011;22332;51.954;20.118;2022-09-17T02:31:30;3.40;;;2.30;;
35847;SDS011;22332;51.954;20.118;2022-09-17T02:34:36;3.80;;;2.50;;
35847;SDS011;22332;51.954;20.118;2022-09-17T02:37:42;4.50;;;2.60;;
35847;SDS011;22332;51.954;20.118;2022-09-17T02:40:49;3.40;;;2.40;;
35847;SDS011;22332;51.954;20.118;2022-09-17T02:43:59;3.70;;;2.10;;
35847;SDS011;22332;51.954;20.118;2022-09-17T02:50:49;3.40;;;2.20;;
35847;SDS011;22332;51.954;20.118;2022-09-17T02:57:21;6.30;;;2.50;;
35847;SDS011;22332;51.954;20.118;2022-09-17T03:00:33;3.10;;;2.40;;
35847;SDS011;22332;51.954;20.118;2022-09-17T03:03:39;3.90;;;2.40;;
35847;SDS011;22332;51.954;20.118;2022-09-17T03:06:48;3.10;;;2.00;;
35847;SDS011;22332;51.954;20.118;2022-09-17T03:09:56;4.00;;;1.90;;
35847;SDS011;22332;51.954;20.118;2022-09-17T03:13:02;3.10;;;2.30;;
35847;SDS011;22332;51.954;20.118;2022-09-17T03:16:07;4.90;;;2.20;;
35847;SDS011;22332;51.954;20.118;2022-09-17T03:19:13;2.90;;;2.30;;
35847;SDS011;22332;51.954;20.118;2022-09-17T03:22:18;4.10;;;2.40;;
35847;SDS011;22332;51.954;20.118;2022-09-17T03:25:23;3.30;;;2.30;;
35847;SDS011;22332;51.954;20.118;2022-09-17T03:28:29;3.00;;;2.40;;
35847;SDS011;22332;51.954;20.118;2022-09-17T03:31:34;3.20;;;2.60;;
35847;SDS011;22332;51.954;20.118;2022-09-17T03:34:39;3.00;;;2.00;;
35847;SDS011;22332;51.954;20.118;2022-09-17T03:37:45;2.60;;;2.10;;
35847;SDS011;22332;51.954;20.118;2022-09-17T03:40:57;2.50;;;2.10;;
35847;SDS011;22332;51.954;20.118;2022-09-17T03:44:03;2.80;;;2.30;;
35847;SDS011;22332;51.954;20.118;2022-09-17T03:47:09;3.50;;;2.20;;
35847;SDS011;22332;51.954;20.118;2022-09-17T03:50:15;2.90;;;2.60;;
35847;SDS011;22332;51.954;20.118;2022-09-17T03:53:20;5.00;;;2.70;;
35847;SDS011;22332;51.954;20.118;2022-09-17T03:56:26;6.30;;;2.80;;
35847;SDS011;22332;51.954;20.118;2022-09-17T03:59:31;3.50;;;2.30;;
35847;SDS011;22332;51.954;20.118;2022-09-17T04:02:36;3.00;;;2.20;;
35847;SDS011;22332;51.954;20.118;2022-09-17T04:05:42;4.60;;;2.60;;
35847;SDS011;22332;51.954;20.118;2022-09-17T04:08:47;3.70;;;2.80;;
35847;SDS011;22332;51.954;20.118;2022-09-17T04:11:53;4.70;;;2.70;;
35847;SDS011;22332;51.954;20.118;2022-09-17T04:14:58;5.50;;;2.70;;
35847;SDS011;22332;51.954;20.118;2022-09-17T04:18:04;3.80;;;2.60;;
35847;SDS011;22332;51.954;20.118;2022-09-17T04:21:10;3.20;;;2.30;;
35847;SDS011;22332;51.954;20.118;2022-09-17T04:24:15;4.30;;;2.30;;
35847;SDS011;22332;51.954;20.118;2022-09-17T04:27:20;3.20;;;2.40;;
35847;SDS011;22332;51.954;20.118;2022-09-17T04:30:26;3.20;;;2.40;;
35847;SDS011;22332;51.954;20.118;2022-09-17T04:33:31;3.30;;;2.50;;
35847;SDS011;22332;51.954;20.118;2022-09-17T04:36:37;5.40;;;2.90;;
35847;SDS011;22332;51.954;20.118;2022-09-17T04:39:42;3.60;;;2.30;;
35847;SDS011;22332;51.954;20.118;2022-09-17T04:42:47;3.00;;;2.60;;
35847;SDS011;22332;51.954;20.118;2022-09-17T04:45:54;2.70;;;2.30;;
35847;SDS011;22332;51.954;20.118;2022-09-17T04:49:00;4.50;;;2.30;;
35847;SDS011;22332;51.954;20.118;2022-09-17T04:52:05;3.40;;;2.50;;
35847;SDS011;22332;51.954;20.118;2022-09-17T04:55:11;4.40;;;2.40;;
35847;SDS011;22332;51.954;20.118;2022-09-17T04:58:17;4.10;;;2.40;;
35847;SDS011;22332;51.954;20.118;2022-09-17T05:01:22;3.40;;;2.30;;
35847;SDS011;22332;51.954;20.118;2022-09-17T05:04:28;2.90;;;2.30;;
35847;SDS011;22332;51.954;20.118;2022-09-17T05:07:33;3.20;;;2.50;;
35847;SDS011;22332;51.954;20.118;2022-09-17T05:10:40;2.70;;;2.00;;
35847;SDS011;22332;51.954;20.118;2022-09-17T05:13:46;3.80;;;2.10;;
35847;SDS011;22332;51.954;20.118;2022-09-17T05:16:52;2.30;;;2.00;;
35847;SDS011;22332;51.954;20.118;2022-09-17T05:19:57;5.50;;;2.30;;
35847;SDS011;22332;51.954;20.118;2022-09-17T05:23:03;2.90;;;2.00;;
35847;SDS011;22332;51.954;20.118;2022-09-17T05:26:09;3.80;;;2.00;;
35847;SDS011;22332;51.954;20.118;2022-09-17T05:29:14;3.90;;;2.10;;
35847;SDS011;22332;51.954;20.118;2022-09-17T05:32:19;2.50;;;2.10;;
35847;SDS011;22332;51.954;20.118;2022-09-17T05:35:25;4.20;;;2.20;;
35847;SDS011;22332;51.954;20.118;2022-09-17T05:38:31;4.00;;;1.70;;
35847;SDS011;22332;51.954;20.118;2022-09-17T05:41:37;3.80;;;1.50;;
35847;SDS011;22332;51.954;20.118;2022-09-17T05:44:42;3.00;;;1.70;;
35847;SDS011;22332;51.954;20.118;2022-09-17T05:47:47;3.20;;;1.90;;
35847;SDS011;22332;51.954;20.118;2022-09-17T05:50:59;2.40;;;1.70;;
35847;SDS011;22332;51.954;20.118;2022-09-17T05:54:04;2.50;;;1.90;;
35847;SDS011;22332;51.954;20.118;2022-09-17T05:57:10;2.80;;;1.70;;
35847;SDS011;22332;51.954;20.118;2022-09-17T06:00:17;2.90;;;1.90;;
35847;SDS011;22332;51.954;20.118;2022-09-17T06:03:23;2.80;;;1.80;;
35847;SDS011;22332;51.954;20.118;2022-09-17T06:06:28;2.30;;;1.60;;
35847;SDS011;22332;51.954;20.118;2022-09-17T06:09:34;3.80;;;1.90;;
35847;SDS011;22332;51.954;20.118;2022-09-17T06:12:40;2.50;;;1.90;;
35847;SDS011;22332;51.954;20.118;2022-09-17T06:15:49;3.30;;;1.80;;
35847;SDS011;22332;51.954;20.118;2022-09-17T06:18:55;2.50;;;2.00;;
35847;SDS011;22332;51.954;20.118;2022-09-17T06:22:00;2.40;;;1.70;;
35847;SDS011;22332;51.954;20.118;2022-09-17T06:25:07;5.00;;;1.90;;
35847;SDS011;22332;51.954;20.118;2022-09-17T06:28:13;3.40;;;1.90;;
35847;SDS011;22332;51.954;20.118;2022-09-17T06:31:19;4.00;;;1.90;;
35847;SDS011;22332;51.954;20.118;2022-09-17T06:34:24;4.80;;;1.80;;
35847;SDS011;22332;51.954;20.118;2022-09-17T06:37:30;3.90;;;1.90;;
35847;SDS011;22332;51.954;20.118;2022-09-17T06:40:37;3.70;;;1.70;;
35847;SDS011;22332;51.954;20.118;2022-09-17T06:43:43;2.80;;;1.70;;
35847;SDS011;22332;51.954;20.118;2022-09-17T06:46:49;4.60;;;1.90;;
35847;SDS011;22332;51.954;20.118;2022-09-17T06:49:54;3.20;;;2.00;;
35847;SDS011;22332;51.954;20.118;2022-09-17T06:53:01;2.10;;;1.60;;
35847;SDS011;22332;51.954;20.118;2022-09-17T06:56:07;3.20;;;1.90;;
35847;SDS011;22332;51.954;20.118;2022-09-17T06:59:13;1.80;;;1.50;;
35847;SDS011;22332;51.954;20.118;2022-09-17T07:02:19;2.90;;;1.50;;
35847;SDS011;22332;51.954;20.118;2022-09-17T07:05:25;2.90;;;1.70;;
35847;SDS011;22332;51.954;20.118;2022-09-17T07:08:32;6.00;;;2.10;;
35847;SDS011;22332;51.954;20.118;2022-09-17T07:11:37;2.30;;;1.40;;
35847;SDS011;22332;51.954;20.118;2022-09-17T07:14:43;3.10;;;1.50;;
35847;SDS011;22332;51.954;20.118;2022-09-17T07:17:49;2.30;;;1.50;;
35847;SDS011;22332;51.954;20.118;2022-09-17T07:20:55;2.50;;;1.70;;
35847;SDS011;22332;51.954;20.118;2022-09-17T07:24:02;2.80;;;1.80;;
35847;SDS011;22332;51.954;20.118;2022-09-17T07:27:08;2.40;;;1.50;;
35847;SDS011;22332;51.954;20.118;2022-09-17T07:30:13;3.90;;;1.50;;
35847;SDS011;22332;51.954;20.118;2022-09-17T07:33:19;3.30;;;1.70;;
35847;SDS011;22332;51.954;20.118;2022-09-17T07:36:26;3.70;;;1.90;;
35847;SDS011;22332;51.954;20.118;2022-09-17T07:39:32;2.70;;;1.80;;
35847;SDS011;22332;51.954;20.118;2022-09-17T07:42:37;3.30;;;1.70;;
35847;SDS011;22332;51.954;20.118;2022-09-17T07:45:43;3.80;;;1.80;;
35847;SDS011;22332;51.954;20.118;2022-09-17T07:48:48;2.90;;;1.60;;
35847;SDS011;22332;51.954;20.118;2022-09-17T07:51:53;2.40;;;1.60;;
35847;SDS011;22332;51.954;20.118;2022-09-17T07:54:59;2.70;;;1.60;;
35847;SDS011;22332;51.954;20.118;2022-09-17T07:58:04;2.90;;;1.60;;
35847;SDS011;22332;51.954;20.118;2022-09-17T08:01:10;2.40;;;1.60;;
35847;SDS011;22332;51.954;20.118;2022-09-17T08:04:18;2.50;;;1.60;;
35847;SDS011;22332;51.954;20.118;2022-09-17T08:07:23;3.00;;;1.70;;
35847;SDS011;22332;51.954;20.118;2022-09-17T08:10:29;1.80;;;1.40;;
35847;SDS011;22332;51.954;20.118;2022-09-17T08:13:35;2.70;;;1.40;;
35847;SDS011;22332;51.954;20.118;2022-09-17T08:16:40;2.30;;;1.50;;
35847;SDS011;22332;51.954;20.118;2022-09-17T08:19:47;1.80;;;1.20;;
35847;SDS011;22332;51.954;20.118;2022-09-17T08:22:58;2.00;;;1.40;;
35847;SDS011;22332;51.954;20.118;2022-09-17T08:26:04;2.60;;;1.60;;
35847;SDS011;22332;51.954;20.118;2022-09-17T08:29:11;1.60;;;1.20;;
35847;SDS011;22332;51.954;20.118;2022-09-17T08:32:16;1.60;;;1.30;;
35847;SDS011;22332;51.954;20.118;2022-09-17T08:35:21;2.50;;;1.50;;
35847;SDS011;22332;51.954;20.118;2022-09-17T08:38:30;2.90;;;1.60;;
35847;SDS011;22332;51.954;20.118;2022-09-17T08:41:41;3.10;;;1.70;;
35847;SDS011;22332;51.954;20.118;2022-09-17T08:44:55;1.70;;;1.50;;
35847;SDS011;22332;51.954;20.118;2022-09-17T08:48:02;2.10;;;1.50;;
35847;SDS011;22332;51.954;20.118;2022-09-17T08:51:10;2.10;;;1.40;;
35847;SDS011;22332;51.954;20.118;2022-09-17T08:54:30;1.50;;;1.40;;
35847;SDS011;22332;51.954;20.118;2022-09-17T08:57:42;1.90;;;1.40;;
35847;SDS011;22332;51.954;20.118;2022-09-17T09:00:56;1.90;;;1.30;;
35847;SDS011;22332;51.954;20.118;2022-09-17T09:04:24;1.40;;;1.30;;
35847;SDS011;22332;51.954;20.118;2022-09-17T09:07:39;1.60;;;1.30;;
35847;SDS011;22332;51.954;20.118;2022-09-17T09:10:50;1.50;;;1.30;;
35847;SDS011;22332;51.954;20.118;2022-09-17T09:13:59;2.10;;;1.40;;
35847;SDS011;22332;51.954;20.118;2022-09-17T09:17:10;2.20;;;1.40;;
35847;SDS011;22332;51.954;20.118;2022-09-17T09:20:19;2.20;;;1.50;;
35847;SDS011;22332;51.954;20.118;2022-09-17T09:23:36;2.30;;;1.70;;
35847;SDS011;22332;51.954;20.118;2022-09-17T09:26:55;2.00;;;1.50;;
35847;SDS011;22332;51.954;20.118;2022-09-17T09:30:13;1.70;;;1.60;;
35847;SDS011;22332;51.954;20.118;2022-09-17T09:33:26;1.80;;;1.50;;
35847;SDS011;22332;51.954;20.118;2022-09-17T09:36:35;3.00;;;2.40;;
35847;SDS011;22332;51.954;20.118;2022-09-17T09:39:42;2.70;;;2.50;;
35847;SDS011;22332;51.954;20.118;2022-09-17T09:42:53;2.90;;;2.60;;
35847;SDS011;22332;51.954;20.118;2022-09-17T09:49:38;2.90;;;2.50;;
35847;SDS011;22332;51.954;20.118;2022-09-17T09:53:01;2.20;;;2.00;;
35847;SDS011;22332;51.954;20.118;2022-09-17T09:56:30;2.10;;;1.70;;
35847;SDS011;22332;51.954;20.118;2022-09-17T09:59:46;2.00;;;1.70;;
35847;SDS011;22332;51.954;20.118;2022-09-17T10:02:52;1.60;;;1.50;;
35847;SDS011;22332;51.954;20.118;2022-09-17T10:06:03;1.80;;;1.70;;
35847;SDS011;22332;51.954;20.118;2022-09-17T10:09:11;1.40;;;1.10;;
35847;SDS011;22332;51.954;20.118;2022-09-17T10:12:18;1.80;;;1.70;;
35847;SDS011;22332;51.954;20.118;2022-09-17T10:15:25;2.30;;;2.10;;
35847;SDS011;22332;51.954;20.118;2022-09-17T10:18:31;2.90;;;2.10;;
35847;SDS011;22332;51.954;20.118;2022-09-17T10:21:37;2.00;;;1.80;;
35847;SDS011;22332;51.954;20.118;2022-09-17T10:24:46;4.50;;;4.10;;
35847;SDS011;22332;51.954;20.118;2022-09-17T10:27:53;3.20;;;2.10;;
35847;SDS011;22332;51.954;20.118;2022-09-17T10:31:00;2.30;;;2.10;;
35847;SDS011;22332;51.954;20.118;2022-09-17T10:34:11;2.00;;;1.50;;
35847;SDS011;22332;51.954;20.118;2022-09-17T10:37:32;4.30;;;3.50;;
35847;SDS011;22332;51.954;20.118;2022-09-17T10:40:45;7.60;;;6.80;;
35847;SDS011;22332;51.954;20.118;2022-09-17T10:43:51;3.50;;;3.20;;
35847;SDS011;22332;51.954;20.118;2022-09-17T10:47:02;3.60;;;2.90;;
35847;SDS011;22332;51.954;20.118;2022-09-17T10:50:15;4.20;;;2.90;;
35847;SDS011;22332;51.954;20.118;2022-09-17T10:53:23;3.90;;;2.80;;
35847;SDS011;22332;51.954;20.118;2022-09-17T10:56:30;3.70;;;2.30;;
35847;SDS011;22332;51.954;20.118;2022-09-17T11:06:50;3.00;;;2.60;;
35847;SDS011;22332;51.954;20.118;2022-09-17T11:10:35;1.90;;;1.50;;
35847;SDS011;22332;51.954;20.118;2022-09-17T11:13:46;3.30;;;2.70;;
35847;SDS011;22332;51.954;20.118;2022-09-17T11:17:00;2.60;;;2.20;;
35847;SDS011;22332;51.954;20.118;2022-09-17T11:20:16;2.10;;;1.80;;
35847;SDS011;22332;51.954;20.118;2022-09-17T11:23:33;1.90;;;1.70;;
35847;SDS011;22332;51.954;20.118;2022-09-17T11:26:59;2.20;;;1.80;;
35847;SDS011;22332;51.954;20.118;2022-09-17T11:30:17;3.20;;;2.10;;
35847;SDS011;22332;51.954;20.118;2022-09-17T11:33:35;4.70;;;3.10;;
35847;SDS011;22332;51.954;20.118;2022-09-17T11:36:58;2.60;;;2.20;;
35847;SDS011;22332;51.954;20.118;2022-09-17T11:40:11;1.80;;;1.60;;
35847;SDS011;22332;51.954;20.118;2022-09-17T11:43:23;1.50;;;1.30;;
35847;SDS011;22332;51.954;20.118;2022-09-17T11:46:32;1.50;;;1.40;;
35847;SDS011;22332;51.954;20.118;2022-09-17T11:49:43;1.30;;;1.10;;
35847;SDS011;22332;51.954;20.118;2022-09-17T11:52:58;2.00;;;1.30;;
35847;SDS011;22332;51.954;20.118;2022-09-17T11:56:09;1.20;;;1.10;;
35847;SDS011;22332;51.954;20.118;2022-09-17T11:59:25;2.30;;;2.10;;
35847;SDS011;22332;51.954;20.118;2022-09-17T12:02:41;3.60;;;2.90;;
35847;SDS011;22332;51.954;20.118;2022-09-17T12:05:54;1.60;;;1.50;;
35847;SDS011;22332;51.954;20.118;2022-09-17T12:09:07;2.40;;;2.20;;
35847;SDS011;22332;51.954;20.118;2022-09-17T12:12:17;13.30;;;9.00;;
35847;SDS011;22332;51.954;20.118;2022-09-17T12:15:26;3.10;;;2.10;;
35847;SDS011;22332;51.954;20.118;2022-09-17T12:18:45;2.30;;;2.00;;
35847;SDS011;22332;51.954;20.118;2022-09-17T12:21:56;2.20;;;1.70;;
35847;SDS011;22332;51.954;20.118;2022-09-17T12:25:11;3.40;;;2.30;;
35847;SDS011;22332;51.954;20.118;2022-09-17T12:28:18;1.90;;;1.50;;
35847;SDS011;22332;51.954;20.118;2022-09-17T12:31:30;3.20;;;1.70;;
35847;SDS011;22332;51.954;20.118;2022-09-17T12:34:43;1.70;;;1.40;;
35847;SDS011;22332;51.954;20.118;2022-09-17T12:38:02;1.80;;;1.60;;
35847;SDS011;22332;51.954;20.118;2022-09-17T12:41:19;2.10;;;1.70;;
35847;SDS011;22332;51.954;20.118;2022-09-17T12:44:36;2.20;;;1.60;;
35847;SDS011;22332;51.954;20.118;2022-09-17T12:47:58;1.90;;;1.70;;
35847;SDS011;22332;51.954;20.118;2022-09-17T12:51:20;6.40;;;4.50;;
35847;SDS011;22332;51.954;20.118;2022-09-17T12:54:40;5.50;;;4.00;;
35847;SDS011;22332;51.954;20.118;2022-09-17T12:57:58;4.60;;;2.80;;
35847;SDS011;22332;51.954;20.118;2022-09-17T13:01:12;4.40;;;2.70;;
35847;SDS011;22332;51.954;20.118;2022-09-17T13:07:52;2.90;;;2.60;;
35847;SDS011;22332;51.954;20.118;2022-09-17T13:11:22;4.80;;;2.20;;
35847;SDS011;22332;51.954;20.118;2022-09-17T13:14:58;2.20;;;2.00;;
35847;SDS011;22332;51.954;20.118;2022-09-17T13:18:21;2.30;;;2.00;;
35847;SDS011;22332;51.954;20.118;2022-09-17T13:21:31;3.00;;;2.30;;
35847;SDS011;22332;51.954;20.118;2022-09-17T13:24:43;3.70;;;2.60;;
35847;SDS011;22332;51.954;20.118;2022-09-17T13:28:02;3.30;;;2.70;;
35847;SDS011;22332;51.954;20.118;2022-09-17T13:31:10;3.10;;;2.80;;
35847;SDS011;22332;51.954;20.118;2022-09-17T13:34:27;4.00;;;3.20;;
35847;SDS011;22332;51.954;20.118;2022-09-17T13:37:38;2.60;;;2.30;;
35847;SDS011;22332;51.954;20.118;2022-09-17T13:40:45;9.90;;;5.80;;
35847;SDS011;22332;51.954;20.118;2022-09-17T13:43:50;6.50;;;5.20;;
35847;SDS011;22332;51.954;20.118;2022-09-17T13:47:07;10.70;;;7.80;;
35847;SDS011;22332;51.954;20.118;2022-09-17T13:50:23;5.40;;;3.50;;
35847;SDS011;22332;51.954;20.118;2022-09-17T13:53:30;3.90;;;3.30;;
35847;SDS011;22332;51.954;20.118;2022-09-17T13:56:41;3.40;;;2.70;;
35847;SDS011;22332;51.954;20.118;2022-09-17T13:59:53;5.00;;;2.50;;
35847;SDS011;22332;51.954;20.118;2022-09-17T14:06:51;3.20;;;2.40;;
35847;SDS011;22332;51.954;20.118;2022-09-17T14:09:56;3.10;;;2.60;;
35847;SDS011;22332;51.954;20.118;2022-09-17T14:16:47;2.70;;;2.30;;
35847;SDS011;22332;51.954;20.118;2022-09-17T14:19:54;2.60;;;2.40;;
35847;SDS011;22332;51.954;20.118;2022-09-17T14:23:00;2.90;;;2.50;;
35847;SDS011;22332;51.954;20.118;2022-09-17T14:26:07;3.50;;;2.50;;
35847;SDS011;22332;51.954;20.118;2022-09-17T14:29:24;2.50;;;2.20;;
35847;SDS011;22332;51.954;20.118;2022-09-17T14:32:45;4.50;;;2.30;;
35847;SDS011;22332;51.954;20.118;2022-09-17T14:35:56;4.10;;;2.30;;
35847;SDS011;22332;51.954;20.118;2022-09-17T14:39:12;3.10;;;2.60;;
35847;SDS011;22332;51.954;20.118;2022-09-17T14:42:24;3.20;;;2.90;;
35847;SDS011;22332;51.954;20.118;2022-09-17T14:45:39;3.70;;;3.00;;
35847;SDS011;22332;51.954;20.118;2022-09-17T14:48:45;3.80;;;2.90;;
35847;SDS011;22332;51.954;20.118;2022-09-17T14:51:52;4.00;;;3.10;;
35847;SDS011;22332;51.954;20.118;2022-09-17T14:58:32;4.50;;;3.80;;
35847;SDS011;22332;51.954;20.118;2022-09-17T15:01:41;4.90;;;3.80;;
35847;SDS011;22332;51.954;20.118;2022-09-17T15:04:50;5.10;;;3.70;;
35847;SDS011;22332;51.954;20.118;2022-09-17T15:08:09;5.10;;;4.30;;
35847;SDS011;22332;51.954;20.118;2022-09-17T15:11:17;5.20;;;4.30;;
35847;SDS011;22332;51.954;20.118;2022-09-17T15:14:25;4.50;;;3.60;;
35847;SDS011;22332;51.954;20.118;2022-09-17T15:17:32;4.00;;;3.00;;
35847;SDS011;22332;51.954;20.118;2022-09-17T15:20:38;4.20;;;3.20;;
35847;SDS011;22332;51.954;20.118;2022-09-17T15:23:44;4.80;;;4.30;;
35847;SDS011;22332;51.954;20.118;2022-09-17T15:26:52;4.40;;;3.80;;
35847;SDS011;22332;51.954;20.118;2022-09-17T15:30:03;5.00;;;4.00;;
35847;SDS011;22332;51.954;20.118;2022-09-17T15:33:13;4.80;;;3.80;;
35847;SDS011;22332;51.954;20.118;2022-09-17T15:36:21;4.80;;;3.80;;
35847;SDS011;22332;51.954;20.118;2022-09-17T15:39:29;4.00;;;3.60;;
35847;SDS011;22332;51.954;20.118;2022-09-17T15:42:41;4.20;;;3.80;;
35847;SDS011;22332;51.954;20.118;2022-09-17T15:45:53;4.00;;;3.60;;
35847;SDS011;22332;51.954;20.118;2022-09-17T15:49:01;4.10;;;3.70;;
35847;SDS011;22332;51.954;20.118;2022-09-17T15:52:21;3.90;;;3.50;;
35847;SDS011;22332;51.954;20.118;2022-09-17T15:55:35;4.10;;;3.30;;
35847;SDS011;22332;51.954;20.118;2022-09-17T15:58:52;4.40;;;3.60;;
35847;SDS011;22332;51.954;20.118;2022-09-17T16:02:01;6.30;;;4.10;;
35847;SDS011;22332;51.954;20.118;2022-09-17T16:11:54;7.70;;;5.70;;
35847;SDS011;22332;51.954;20.118;2022-09-17T16:15:00;7.60;;;5.80;;
35847;SDS011;22332;51.954;20.118;2022-09-17T16:18:09;6.00;;;4.70;;
35847;SDS011;22332;51.954;20.118;2022-09-17T16:21:17;7.10;;;4.70;;
35847;SDS011;22332;51.954;20.118;2022-09-17T16:24:23;6.80;;;4.50;;
35847;SDS011;22332;51.954;20.118;2022-09-17T16:27:29;5.80;;;4.30;;
35847;SDS011;22332;51.954;20.118;2022-09-17T16:30:38;5.70;;;4.00;;
35847;SDS011;22332;51.954;20.118;2022-09-17T16:33:47;7.20;;;4.80;;
35847;SDS011;22332;51.954;20.118;2022-09-17T16:36:53;6.70;;;4.70;;
35847;SDS011;22332;51.954;20.118;2022-09-17T16:39:58;5.90;;;4.50;;
35847;SDS011;22332;51.954;20.118;2022-09-17T16:43:03;6.70;;;4.80;;
35847;SDS011;22332;51.954;20.118;2022-09-17T16:46:11;7.40;;;5.30;;
35847;SDS011;22332;51.954;20.118;2022-09-17T16:49:21;7.10;;;5.60;;
35847;SDS011;22332;51.954;20.118;2022-09-17T16:52:27;6.80;;;5.40;;
35847;SDS011;22332;51.954;20.118;2022-09-17T16:55:32;7.20;;;5.30;;
35847;SDS011;22332;51.954;20.118;2022-09-17T16:58:38;7.60;;;5.00;;
35847;SDS011;22332;51.954;20.118;2022-09-17T17:01:44;7.70;;;5.60;;
35847;SDS011;22332;51.954;20.118;2022-09-17T17:04:51;7.50;;;5.90;;
35847;SDS011;22332;51.954;20.118;2022-09-17T17:07:57;8.00;;;5.80;;
35847;SDS011;22332;51.954;20.118;2022-09-17T17:11:03;7.20;;;5.60;;
35847;SDS011;22332;51.954;20.118;2022-09-17T17:14:08;8.20;;;6.40;;
35847;SDS011;22332;51.954;20.118;2022-09-17T17:17:14;7.00;;;6.10;;
35847;SDS011;22332;51.954;20.118;2022-09-17T17:20:21;9.10;;;6.80;;
35847;SDS011;22332;51.954;20.118;2022-09-17T17:23:26;7.00;;;5.20;;
35847;SDS011;22332;51.954;20.118;2022-09-17T17:26:32;5.90;;;4.40;;
35847;SDS011;22332;51.954;20.118;2022-09-17T17:29:37;7.60;;;5.00;;
35847;SDS011;22332;51.954;20.118;2022-09-17T17:32:43;8.90;;;6.70;;
35847;SDS011;22332;51.954;20.118;2022-09-17T17:35:52;9.90;;;7.30;;
35847;SDS011;22332;51.954;20.118;2022-09-17T17:38:57;13.10;;;9.60;;
35847;SDS011;22332;51.954;20.118;2022-09-17T17:42:03;17.10;;;12.10;;
35847;SDS011;22332;51.954;20.118;2022-09-17T17:45:09;19.70;;;13.60;;
35847;SDS011;22332;51.954;20.118;2022-09-17T17:48:16;20.80;;;14.10;;
35847;SDS011;22332;51.954;20.118;2022-09-17T17:51:21;17.40;;;11.80;;
35847;SDS011;22332;51.954;20.118;2022-09-17T17:54:28;26.10;;;17.30;;
35847;SDS011;22332;51.954;20.118;2022-09-17T17:57:34;109.10;;;77.60;;
35847;SDS011;22332;51.954;20.118;2022-09-17T18:00:40;57.80;;;40.50;;
35847;SDS011;22332;51.954;20.118;2022-09-17T18:03:45;32.90;;;22.90;;
35847;SDS011;22332;51.954;20.118;2022-09-17T18:06:51;16.40;;;11.90;;
35847;SDS011;22332;51.954;20.118;2022-09-17T18:09:57;17.40;;;11.10;;
35847;SDS011;22332;51.954;20.118;2022-09-17T18:13:02;14.90;;;10.90;;
35847;SDS011;22332;51.954;20.118;2022-09-17T18:16:09;13.00;;;9.80;;
35847;SDS011;22332;51.954;20.118;2022-09-17T18:19:16;9.40;;;7.20;;
35847;SDS011;22332;51.954;20.118;2022-09-17T18:22:22;11.60;;;8.00;;
35847;SDS011;22332;51.954;20.118;2022-09-17T18:25:27;11.50;;;8.60;;
35847;SDS011;22332;51.954;20.118;2022-09-17T18:28:34;12.70;;;8.30;;
35847;SDS011;22332;51.954;20.118;2022-09-17T18:31:39;11.40;;;8.00;;
35847;SDS011;22332;51.954;20.118;2022-09-17T18:34:46;14.30;;;11.00;;
35847;SDS011;22332;51.954;20.118;2022-09-17T18:37:52;12.50;;;9.30;;
35847;SDS011;22332;51.954;20.118;2022-09-17T18:41:04;13.00;;;9.30;;
35847;SDS011;22332;51.954;20.118;2022-09-17T18:44:11;10.10;;;7.50;;
35847;SDS011;22332;51.954;20.118;2022-09-17T18:47:17;25.80;;;19.80;;
35847;SDS011;22332;51.954;20.118;2022-09-17T18:50:22;18.00;;;13.60;;
35847;SDS011;22332;51.954;20.118;2022-09-17T18:53:28;14.30;;;10.10;;
35847;SDS011;22332;51.954;20.118;2022-09-17T18:56:36;14.40;;;10.30;;
35847;SDS011;22332;51.954;20.118;2022-09-17T18:59:43;13.80;;;10.10;;
35847;SDS011;22332;51.954;20.118;2022-09-17T19:02:48;20.80;;;13.60;;
35847;SDS011;22332;51.954;20.118;2022-09-17T19:05:57;20.70;;;12.10;;
35847;SDS011;22332;51.954;20.118;2022-09-17T19:09:03;16.70;;;9.90;;
35847;SDS011;22332;51.954;20.118;2022-09-17T19:12:09;14.00;;;9.90;;
35847;SDS011;22332;51.954;20.118;2022-09-17T19:15:14;13.00;;;10.00;;
35847;SDS011;22332;51.954;20.118;2022-09-17T19:18:20;13.80;;;9.00;;
35847;SDS011;22332;51.954;20.118;2022-09-17T19:21:25;12.80;;;8.80;;
35847;SDS011;22332;51.954;20.118;2022-09-17T19:24:31;11.90;;;9.20;;